This is the latest recevied weather packets stored in our database for station/object W4NFM. If no packets are shown the sender has not sent any weather packets the latest 10 day(s).
| Time | Temp. | Humidity | Pressure | Rain* | Wind** | Luminosity | Snow |
|---|---|---|---|---|---|---|---|
| 1777635904 | 7.22° C | 82% | 1016.8 hPa | 0 mm | - | 12 W/m² | - |
| 1777631786 | 6.11° C | 83% | 1016.3 hPa | 0 mm | - | 0 W/m² | - |
| 1777631224 | 6.11° C | 80% | 1016.4 hPa | 0 mm | - | 0 W/m² | - |
| 1777630144 | 6.11° C | 82% | 1016.3 hPa | 0 mm | - | 0 W/m² | - |
| 1777627084 | 7.78° C | 75% | 1016.3 hPa | 0 mm | - | 0 W/m² | - |
| 1777618444 | 8.89° C | 70% | 1015.8 hPa | 0 mm | - | 0 W/m² | - |
| 1777617904 | 8.89° C | 70% | 1016 hPa | 0 mm | - | 0 W/m² | - |
| 1777615204 | 8.89° C | 66% | 1016.1 hPa | 0 mm | - | 0 W/m² | - |
| 1777614844 | 8.89° C | 68% | 1016 hPa | 0 mm | - | 0 W/m² | - |
| 1777609624 | 8.89° C | 67% | 1016.3 hPa | 0 mm | - | 0 W/m² | - |
| 1777608544 | 9.44° C | 62% | 1016.4 hPa | 0 mm | - | 0 W/m² | - |
| 1777607104 | 9.44° C | 67% | 1016.3 hPa | 0 mm | - | 0 W/m² | - |
| 1777599904 | 11.11° C | 59% | 1015.4 hPa | 0 mm | - | 0 W/m² | - |
| 1777590544 | 15.56° C | 40% | 1012.5 hPa | 0 mm | - | 9 W/m² | - |
| 1777590025 | 16.11° C | 38% | 1012.3 hPa | 0 mm | - | 12 W/m² | - |
| 1777588585 | 16.67° C | 41% | 1012.4 hPa | 0 mm | - | 16 W/m² | - |
| 1777588024 | 16.67° C | 40% | 1012.3 hPa | 0 mm | - | 19 W/m² | - |
| 1777581904 | 21.67° C | 32% | 1011.4 hPa | 0 mm | - | 519 W/m² | - |
| 1777579204 | 21.67° C | 36% | 1011.3 hPa | 0 mm | - | 614 W/m² | - |
| 1777578844 | 21.11° C | 35% | 1011.1 hPa | 0 mm | - | 639 W/m² | - |
| 1777577764 | 21.67° C | 38% | 1011.6 hPa | 0 mm | - | 633 W/m² | - |
| 1777574164 | 21.11° C | 36% | 1011.3 hPa | 0 mm | - | 765 W/m² | - |
| 1777573084 | 20.56° C | 40% | 1011.3 hPa | 0 mm | - | 716 W/m² | - |
| 1777572544 | 18.89° C | 43% | 1011.3 hPa | 0 mm | - | 233 W/m² | - |
| 1777570024 | 17.78° C | 44% | 1011.7 hPa | 0 mm | - | 65 W/m² | - |
* Rain latest hour (hover to see other rain measurements)
** Current wind speed in m/s (hover to see current wind gust speed)